Terminal Aerodrome Forecast
Issued by NWS Cleveland, OH

Home | Current Version | Previous Version | Graphics & Text | Print | Product List | Glossary On
Versions: 1 2 3 4 5 6 7 8 9 10 11 12 13 14 15
000
FTUS41 KCLE 172054 AAA
TAFMFD
TAF AMD
KMFD 172054Z 1721/1818 21012G20KT P6SM BKN070
     FM172300 20010KT P6SM BKN150
     FM180800 23007KT 5SM BR BKN015
     FM181400 22008KT P6SM BKN025=

USA.gov is the U.S. government's official web portal to all federal, state and local government web resources and services.